sensor_id;sensor_type;location;lat;lon;timestamp;noise_LAeq;noise_LA_min;noise_LA_max;noise_LA01;noise_LA95
83034;Laerm;72848;52.216;5.616;2024-03-08T00:01:03;31.72;30.07;37.25;;
83034;Laerm;72848;52.216;5.616;2024-03-08T00:03:34;31.92;30.29;37.48;;
83034;Laerm;72848;52.216;5.616;2024-03-08T00:06:03;31.87;30.04;36.71;;
83034;Laerm;72848;52.216;5.616;2024-03-08T00:08:31;32.15;30.20;37.04;;
83034;Laerm;72848;52.216;5.616;2024-03-08T00:11:00;31.83;30.11;37.81;;
83034;Laerm;72848;52.216;5.616;2024-03-08T00:13:29;32.14;30.24;38.88;;
83034;Laerm;72848;52.216;5.616;2024-03-08T00:15:58;32.11;30.41;36.99;;
83034;Laerm;72848;52.216;5.616;2024-03-08T00:18:27;32.58;30.36;44.93;;
83034;Laerm;72848;52.216;5.616;2024-03-08T00:20:57;32.08;30.31;37.11;;
83034;Laerm;72848;52.216;5.616;2024-03-08T00:23:26;31.95;30.15;38.02;;
83034;Laerm;72848;52.216;5.616;2024-03-08T00:25:55;32.29;30.38;40.05;;
83034;Laerm;72848;52.216;5.616;2024-03-08T00:28:23;32.92;30.79;39.55;;
83034;Laerm;72848;52.216;5.616;2024-03-08T00:30:53;32.52;30.61;37.53;;
83034;Laerm;72848;52.216;5.616;2024-03-08T00:33:21;32.06;30.00;37.99;;
83034;Laerm;72848;52.216;5.616;2024-03-08T00:35:50;31.80;29.98;35.95;;
83034;Laerm;72848;52.216;5.616;2024-03-08T00:38:21;32.29;30.35;37.64;;
83034;Laerm;72848;52.216;5.616;2024-03-08T00:40:50;32.00;30.11;38.13;;
83034;Laerm;72848;52.216;5.616;2024-03-08T00:43:18;31.77;30.05;37.09;;
83034;Laerm;72848;52.216;5.616;2024-03-08T00:45:47;31.98;30.34;37.41;;
83034;Laerm;72848;52.216;5.616;2024-03-08T00:48:15;32.02;30.27;37.57;;
83034;Laerm;72848;52.216;5.616;2024-03-08T00:50:44;32.11;29.82;38.19;;
83034;Laerm;72848;52.216;5.616;2024-03-08T00:53:12;31.89;30.31;37.02;;
83034;Laerm;72848;52.216;5.616;2024-03-08T00:55:44;32.32;30.14;36.99;;
83034;Laerm;72848;52.216;5.616;2024-03-08T00:58:12;31.89;29.89;38.04;;
83034;Laerm;72848;52.216;5.616;2024-03-08T01:00:41;32.51;30.45;38.05;;
83034;Laerm;72848;52.216;5.616;2024-03-08T01:03:09;32.42;30.02;37.09;;
83034;Laerm;72848;52.216;5.616;2024-03-08T01:05:38;32.78;30.38;44.84;;
83034;Laerm;72848;52.216;5.616;2024-03-08T01:08:06;32.26;30.16;41.41;;
83034;Laerm;72848;52.216;5.616;2024-03-08T01:10:35;32.19;30.36;37.45;;
83034;Laerm;72848;52.216;5.616;2024-03-08T01:13:07;32.07;29.99;37.28;;
83034;Laerm;72848;52.216;5.616;2024-03-08T01:15:35;32.68;30.50;37.98;;
83034;Laerm;72848;52.216;5.616;2024-03-08T01:18:04;32.91;30.91;38.99;;
83034;Laerm;72848;52.216;5.616;2024-03-08T01:20:33;33.59;31.49;42.21;;
83034;Laerm;72848;52.216;5.616;2024-03-08T01:23:02;32.53;30.53;38.14;;
83034;Laerm;72848;52.216;5.616;2024-03-08T01:25:30;32.22;30.55;39.30;;
83034;Laerm;72848;52.216;5.616;2024-03-08T01:27:59;33.35;30.52;43.18;;
83034;Laerm;72848;52.216;5.616;2024-03-08T01:30:30;32.55;30.49;42.71;;
83034;Laerm;72848;52.216;5.616;2024-03-08T01:32:59;32.37;30.29;42.61;;
83034;Laerm;72848;52.216;5.616;2024-03-08T01:35:27;32.08;30.06;40.55;;
83034;Laerm;72848;52.216;5.616;2024-03-08T01:37:55;32.14;30.13;41.82;;
83034;Laerm;72848;52.216;5.616;2024-03-08T01:40:24;32.40;30.24;40.95;;
83034;Laerm;72848;52.216;5.616;2024-03-08T01:42:53;32.22;30.34;37.22;;
83034;Laerm;72848;52.216;5.616;2024-03-08T01:45:21;33.36;30.27;38.40;;
83034;Laerm;72848;52.216;5.616;2024-03-08T01:47:52;32.25;29.83;49.03;;
83034;Laerm;72848;52.216;5.616;2024-03-08T01:50:21;31.77;29.84;41.58;;
83034;Laerm;72848;52.216;5.616;2024-03-08T01:52:49;32.21;30.29;36.89;;
83034;Laerm;72848;52.216;5.616;2024-03-08T01:55:17;31.57;29.83;37.23;;
83034;Laerm;72848;52.216;5.616;2024-03-08T01:57:46;31.72;29.85;36.78;;
83034;Laerm;72848;52.216;5.616;2024-03-08T02:00:16;31.94;29.81;37.41;;
83034;Laerm;72848;52.216;5.616;2024-03-08T02:02:45;31.76;30.00;37.53;;
83034;Laerm;72848;52.216;5.616;2024-03-08T02:05:17;32.18;30.05;37.47;;
83034;Laerm;72848;52.216;5.616;2024-03-08T02:07:45;31.94;30.23;37.07;;
83034;Laerm;72848;52.216;5.616;2024-03-08T02:10:14;32.14;30.30;37.69;;
83034;Laerm;72848;52.216;5.616;2024-03-08T02:12:42;31.89;29.99;37.32;;
83034;Laerm;72848;52.216;5.616;2024-03-08T02:15:12;32.02;30.00;37.75;;
83034;Laerm;72848;52.216;5.616;2024-03-08T02:17:41;32.33;30.39;37.38;;
83034;Laerm;72848;52.216;5.616;2024-03-08T02:20:10;32.65;30.73;41.96;;
83034;Laerm;72848;52.216;5.616;2024-03-08T02:22:41;32.66;30.61;37.76;;
83034;Laerm;72848;52.216;5.616;2024-03-08T02:25:10;33.10;31.02;41.98;;
83034;Laerm;72848;52.216;5.616;2024-03-08T02:27:39;33.44;30.88;41.99;;
83034;Laerm;72848;52.216;5.616;2024-03-08T02:30:08;32.40;30.31;37.56;;
83034;Laerm;72848;52.216;5.616;2024-03-08T02:32:37;31.63;29.84;37.30;;
83034;Laerm;72848;52.216;5.616;2024-03-08T02:35:06;31.72;29.95;37.09;;
83034;Laerm;72848;52.216;5.616;2024-03-08T02:37:35;32.23;30.24;38.71;;
83034;Laerm;72848;52.216;5.616;2024-03-08T02:40:06;33.50;30.65;42.83;;
83034;Laerm;72848;52.216;5.616;2024-03-08T02:42:35;32.26;30.40;37.45;;
83034;Laerm;72848;52.216;5.616;2024-03-08T02:45:04;34.72;30.74;41.84;;
83034;Laerm;72848;52.216;5.616;2024-03-08T02:47:33;33.94;30.51;38.84;;
83034;Laerm;72848;52.216;5.616;2024-03-08T02:50:02;34.00;31.06;41.52;;
83034;Laerm;72848;52.216;5.616;2024-03-08T02:52:31;34.31;31.00;39.51;;
83034;Laerm;72848;52.216;5.616;2024-03-08T02:55:00;35.53;31.28;44.87;;
83034;Laerm;72848;52.216;5.616;2024-03-08T02:57:31;34.40;31.41;39.30;;
83034;Laerm;72848;52.216;5.616;2024-03-08T02:59:59;36.83;30.76;46.24;;
83034;Laerm;72848;52.216;5.616;2024-03-08T03:02:28;53.11;32.38;67.80;;
83034;Laerm;72848;52.216;5.616;2024-03-08T03:04:56;33.80;31.44;40.56;;
83034;Laerm;72848;52.216;5.616;2024-03-08T03:07:25;33.36;31.75;37.69;;
83034;Laerm;72848;52.216;5.616;2024-03-08T03:09:53;33.07;31.28;37.46;;
83034;Laerm;72848;52.216;5.616;2024-03-08T03:12:22;33.57;31.50;38.18;;
83034;Laerm;72848;52.216;5.616;2024-03-08T03:14:53;33.81;31.37;37.71;;
83034;Laerm;72848;52.216;5.616;2024-03-08T03:17:21;33.40;31.05;37.62;;
83034;Laerm;72848;52.216;5.616;2024-03-08T03:19:50;33.65;31.40;38.27;;
83034;Laerm;72848;52.216;5.616;2024-03-08T03:22:19;33.15;31.13;38.81;;
83034;Laerm;72848;52.216;5.616;2024-03-08T03:24:47;33.44;31.41;37.96;;
83034;Laerm;72848;52.216;5.616;2024-03-08T03:27:16;34.87;31.55;40.74;;
83034;Laerm;72848;52.216;5.616;2024-03-08T03:29:44;33.12;31.35;37.73;;
83034;Laerm;72848;52.216;5.616;2024-03-08T03:32:16;33.45;31.37;37.94;;
83034;Laerm;72848;52.216;5.616;2024-03-08T03:34:45;34.28;31.61;39.76;;
83034;Laerm;72848;52.216;5.616;2024-03-08T03:37:13;33.38;31.54;37.82;;
83034;Laerm;72848;52.216;5.616;2024-03-08T03:39:42;33.12;30.77;45.20;;
83034;Laerm;72848;52.216;5.616;2024-03-08T03:42:10;34.00;31.30;38.36;;
83034;Laerm;72848;52.216;5.616;2024-03-08T03:44:39;34.47;31.67;39.34;;
83034;Laerm;72848;52.216;5.616;2024-03-08T03:47:08;33.55;31.31;38.65;;
83034;Laerm;72848;52.216;5.616;2024-03-08T03:49:39;34.47;31.46;46.18;;
83034;Laerm;72848;52.216;5.616;2024-03-08T03:52:08;37.08;32.87;43.86;;
83034;Laerm;72848;52.216;5.616;2024-03-08T03:54:37;36.75;32.92;45.12;;
83034;Laerm;72848;52.216;5.616;2024-03-08T03:57:05;36.69;33.30;45.43;;
83034;Laerm;72848;52.216;5.616;2024-03-08T03:59:34;36.59;32.88;42.05;;
83034;Laerm;72848;52.216;5.616;2024-03-08T04:02:02;39.10;33.71;47.24;;
83034;Laerm;72848;52.216;5.616;2024-03-08T04:04:30;36.25;32.37;49.64;;
83034;Laerm;72848;52.216;5.616;2024-03-08T04:07:01;37.67;32.24;47.41;;
83034;Laerm;72848;52.216;5.616;2024-03-08T04:09:30;34.97;32.94;38.43;;
83034;Laerm;72848;52.216;5.616;2024-03-08T04:11:59;34.12;32.02;39.14;;
83034;Laerm;72848;52.216;5.616;2024-03-08T04:14:28;34.48;32.24;38.49;;
83034;Laerm;72848;52.216;5.616;2024-03-08T04:16:56;34.23;32.43;37.99;;
83034;Laerm;72848;52.216;5.616;2024-03-08T04:19:24;36.05;32.18;45.00;;
83034;Laerm;72848;52.216;5.616;2024-03-08T04:21:53;35.02;32.51;46.08;;
83034;Laerm;72848;52.216;5.616;2024-03-08T04:24:25;35.19;32.92;40.24;;
83034;Laerm;72848;52.216;5.616;2024-03-08T04:26:53;35.14;32.60;40.04;;
83034;Laerm;72848;52.216;5.616;2024-03-08T04:29:21;33.98;32.38;38.22;;
83034;Laerm;72848;52.216;5.616;2024-03-08T04:31:50;35.45;32.74;41.50;;
83034;Laerm;72848;52.216;5.616;2024-03-08T04:34:19;34.29;32.08;37.93;;
83034;Laerm;72848;52.216;5.616;2024-03-08T04:36:48;35.43;32.50;43.39;;
83034;Laerm;72848;52.216;5.616;2024-03-08T04:39:16;34.78;32.23;42.03;;
83034;Laerm;72848;52.216;5.616;2024-03-08T04:41:47;35.29;32.63;40.57;;
83034;Laerm;72848;52.216;5.616;2024-03-08T04:44:16;36.34;32.87;42.88;;
83034;Laerm;72848;52.216;5.616;2024-03-08T04:46:44;36.38;33.91;42.53;;
83034;Laerm;72848;52.216;5.616;2024-03-08T04:49:13;34.57;32.45;41.61;;
83034;Laerm;72848;52.216;5.616;2024-03-08T04:51:41;35.33;32.53;39.35;;
83034;Laerm;72848;52.216;5.616;2024-03-08T04:54:10;36.25;32.98;40.36;;
83034;Laerm;72848;52.216;5.616;2024-03-08T04:56:38;35.34;33.23;43.24;;
83034;Laerm;72848;52.216;5.616;2024-03-08T04:59:09;34.55;32.69;37.98;;
83034;Laerm;72848;52.216;5.616;2024-03-08T05:01:38;35.34;32.85;40.51;;
83034;Laerm;72848;52.216;5.616;2024-03-08T05:04:06;34.46;32.94;38.05;;
83034;Laerm;72848;52.216;5.616;2024-03-08T05:06:34;35.43;33.03;42.24;;
83034;Laerm;72848;52.216;5.616;2024-03-08T05:09:03;35.08;33.07;43.64;;
83034;Laerm;72848;52.216;5.616;2024-03-08T05:11:31;35.58;33.47;39.36;;
83034;Laerm;72848;52.216;5.616;2024-03-08T05:14:00;36.67;33.46;57.32;;
83034;Laerm;72848;52.216;5.616;2024-03-08T05:16:31;37.40;33.52;43.14;;
83034;Laerm;72848;52.216;5.616;2024-03-08T05:18:59;41.15;34.30;54.33;;
83034;Laerm;72848;52.216;5.616;2024-03-08T05:21:28;44.82;35.14;55.28;;
83034;Laerm;72848;52.216;5.616;2024-03-08T05:23:57;46.48;36.90;57.61;;
83034;Laerm;72848;52.216;5.616;2024-03-08T05:26:26;47.76;36.44;65.68;;
83034;Laerm;72848;52.216;5.616;2024-03-08T05:28:54;45.77;36.17;57.12;;
83034;Laerm;72848;52.216;5.616;2024-03-08T05:31:22;45.75;35.16;57.41;;
83034;Laerm;72848;52.216;5.616;2024-03-08T05:33:54;46.64;35.83;58.27;;
83034;Laerm;72848;52.216;5.616;2024-03-08T05:36:22;43.87;35.05;56.51;;
83034;Laerm;72848;52.216;5.616;2024-03-08T05:38:50;39.16;35.06;54.24;;
83034;Laerm;72848;52.216;5.616;2024-03-08T05:41:19;48.77;33.97;65.89;;
83034;Laerm;72848;52.216;5.616;2024-03-08T05:43:47;52.45;35.05;67.92;;
83034;Laerm;72848;52.216;5.616;2024-03-08T05:46:16;51.80;35.20;67.85;;
83034;Laerm;72848;52.216;5.616;2024-03-08T05:48:44;51.61;35.27;64.84;;
83034;Laerm;72848;52.216;5.616;2024-03-08T05:51:16;49.17;34.89;65.18;;
83034;Laerm;72848;52.216;5.616;2024-03-08T05:53:45;38.59;34.99;50.93;;
83034;Laerm;72848;52.216;5.616;2024-03-08T05:56:13;38.65;35.35;50.17;;
83034;Laerm;72848;52.216;5.616;2024-03-08T05:58:42;38.66;35.22;46.51;;
83034;Laerm;72848;52.216;5.616;2024-03-08T06:01:10;39.18;34.99;53.08;;
83034;Laerm;72848;52.216;5.616;2024-03-08T06:03:38;39.58;35.78;49.52;;
83034;Laerm;72848;52.216;5.616;2024-03-08T06:06:07;40.07;35.11;50.28;;
83034;Laerm;72848;52.216;5.616;2024-03-08T06:08:38;40.62;35.31;50.97;;
83034;Laerm;72848;52.216;5.616;2024-03-08T06:11:07;42.19;36.78;53.86;;
83034;Laerm;72848;52.216;5.616;2024-03-08T06:13:35;43.87;35.94;62.35;;
83034;Laerm;72848;52.216;5.616;2024-03-08T06:16:04;41.01;35.39;51.93;;
83034;Laerm;72848;52.216;5.616;2024-03-08T06:18:32;43.45;35.55;60.02;;
83034;Laerm;72848;52.216;5.616;2024-03-08T06:21:01;43.63;35.74;60.66;;
83034;Laerm;72848;52.216;5.616;2024-03-08T06:23:29;41.68;35.96;55.10;;
83034;Laerm;72848;52.216;5.616;2024-03-08T06:26:01;41.26;35.78;51.45;;
83034;Laerm;72848;52.216;5.616;2024-03-08T06:28:29;39.61;35.91;47.21;;
83034;Laerm;72848;52.216;5.616;2024-03-08T06:30:58;42.72;36.04;62.97;;
83034;Laerm;72848;52.216;5.616;2024-03-08T06:33:26;40.43;35.44;51.38;;
83034;Laerm;72848;52.216;5.616;2024-03-08T06:35:54;41.52;35.92;62.11;;
83034;Laerm;72848;52.216;5.616;2024-03-08T06:38:23;40.86;36.40;48.64;;
83034;Laerm;72848;52.216;5.616;2024-03-08T06:40:52;40.40;36.12;53.85;;
83034;Laerm;72848;52.216;5.616;2024-03-08T06:43:24;43.07;35.66;58.17;;
83034;Laerm;72848;52.216;5.616;2024-03-08T06:45:53;41.32;35.82;54.95;;
83034;Laerm;72848;52.216;5.616;2024-03-08T06:48:22;43.10;36.50;53.12;;
83034;Laerm;72848;52.216;5.616;2024-03-08T06:50:51;39.91;36.04;48.97;;
83034;Laerm;72848;52.216;5.616;2024-03-08T06:53:20;42.29;35.56;57.49;;
83034;Laerm;72848;52.216;5.616;2024-03-08T06:55:48;44.59;36.07;60.94;;
83034;Laerm;72848;52.216;5.616;2024-03-08T06:58:17;49.40;36.12;69.64;;
83034;Laerm;72848;52.216;5.616;2024-03-08T07:00:49;45.66;36.08;65.73;;
83034;Laerm;72848;52.216;5.616;2024-03-08T07:03:17;45.31;35.60;62.23;;
83034;Laerm;72848;52.216;5.616;2024-03-08T07:05:45;43.71;35.54;62.23;;
83034;Laerm;72848;52.216;5.616;2024-03-08T07:08:15;49.72;36.71;68.38;;
83034;Laerm;72848;52.216;5.616;2024-03-08T07:10:43;49.60;36.26;70.07;;
83034;Laerm;72848;52.216;5.616;2024-03-08T07:13:12;42.69;35.98;59.55;;
83034;Laerm;72848;52.216;5.616;2024-03-08T07:15:41;50.34;36.31;67.87;;
83034;Laerm;72848;52.216;5.616;2024-03-08T07:18:12;43.95;36.52;64.00;;
83034;Laerm;72848;52.216;5.616;2024-03-08T07:20:40;42.18;36.09;58.51;;
83034;Laerm;72848;52.216;5.616;2024-03-08T07:23:09;41.18;36.26;56.94;;
83034;Laerm;72848;52.216;5.616;2024-03-08T07:25:39;39.43;36.59;44.97;;
83034;Laerm;72848;52.216;5.616;2024-03-08T07:28:07;40.94;37.55;55.42;;
83034;Laerm;72848;52.216;5.616;2024-03-08T07:30:37;43.41;37.20;57.70;;
83034;Laerm;72848;52.216;5.616;2024-03-08T07:33:05;52.27;36.18;64.95;;
83034;Laerm;72848;52.216;5.616;2024-03-08T07:35:37;49.89;37.55;68.14;;
83034;Laerm;72848;52.216;5.616;2024-03-08T07:38:05;48.72;37.02;68.84;;
83034;Laerm;72848;52.216;5.616;2024-03-08T07:40:35;39.90;36.02;48.40;;
83034;Laerm;72848;52.216;5.616;2024-03-08T07:43:03;41.88;36.94;49.77;;
83034;Laerm;72848;52.216;5.616;2024-03-08T07:45:32;42.36;37.41;48.47;;
83034;Laerm;72848;52.216;5.616;2024-03-08T07:48:01;52.57;41.33;68.69;;
83034;Laerm;72848;52.216;5.616;2024-03-08T07:50:30;49.85;41.73;64.07;;
83034;Laerm;72848;52.216;5.616;2024-03-08T07:53:01;53.28;42.50;67.99;;
83034;Laerm;72848;52.216;5.616;2024-03-08T07:55:30;50.70;40.83;65.05;;
83034;Laerm;72848;52.216;5.616;2024-03-08T07:57:59;44.59;41.27;51.50;;
83034;Laerm;72848;52.216;5.616;2024-03-08T08:00:28;49.75;41.10;64.28;;
83034;Laerm;72848;52.216;5.616;2024-03-08T08:02:58;44.87;40.69;60.84;;
83034;Laerm;72848;52.216;5.616;2024-03-08T08:05:27;43.74;40.91;47.39;;
83034;Laerm;72848;52.216;5.616;2024-03-08T08:07:56;45.42;40.25;54.30;;
83034;Laerm;72848;52.216;5.616;2024-03-08T08:10:27;43.88;39.90;51.25;;
83034;Laerm;72848;52.216;5.616;2024-03-08T08:12:55;44.55;40.36;54.36;;
83034;Laerm;72848;52.216;5.616;2024-03-08T08:15:23;48.26;40.17;63.49;;
83034;Laerm;72848;52.216;5.616;2024-03-08T08:17:52;44.75;37.79;63.32;;
83034;Laerm;72848;52.216;5.616;2024-03-08T08:20:20;40.52;37.52;46.86;;
83034;Laerm;72848;52.216;5.616;2024-03-08T08:22:49;43.62;37.31;53.38;;
83034;Laerm;72848;52.216;5.616;2024-03-08T08:25:17;39.95;36.37;47.75;;
83034;Laerm;72848;52.216;5.616;2024-03-08T08:27:48;41.33;36.19;53.89;;
83034;Laerm;72848;52.216;5.616;2024-03-08T08:30:17;41.89;37.22;52.22;;
83034;Laerm;72848;52.216;5.616;2024-03-08T08:32:46;39.56;36.44;46.15;;
83034;Laerm;72848;52.216;5.616;2024-03-08T08:35:16;39.88;37.13;45.65;;
83034;Laerm;72848;52.216;5.616;2024-03-08T08:37:44;40.91;37.03;49.42;;
83034;Laerm;72848;52.216;5.616;2024-03-08T08:40:14;42.75;37.00;52.16;;
83034;Laerm;72848;52.216;5.616;2024-03-08T08:42:42;39.64;36.02;45.32;;
83034;Laerm;72848;52.216;5.616;2024-03-08T08:45:14;46.62;36.23;69.45;;
83034;Laerm;72848;52.216;5.616;2024-03-08T08:47:42;46.99;36.12;63.23;;
83034;Laerm;72848;52.216;5.616;2024-03-08T08:50:11;61.52;36.24;78.42;;
83034;Laerm;72848;52.216;5.616;2024-03-08T08:52:39;51.89;37.40;71.36;;
83034;Laerm;72848;52.216;5.616;2024-03-08T08:55:08;60.45;36.29;76.39;;
83034;Laerm;72848;52.216;5.616;2024-03-08T08:57:36;57.65;36.78;77.60;;
83034;Laerm;72848;52.216;5.616;2024-03-08T09:00:05;53.03;38.65;71.99;;
83034;Laerm;72848;52.216;5.616;2024-03-08T09:02:37;51.66;39.84;70.00;;
83034;Laerm;72848;52.216;5.616;2024-03-08T09:05:06;49.39;38.14;67.74;;
83034;Laerm;72848;52.216;5.616;2024-03-08T09:07:35;41.24;37.39;53.18;;
83034;Laerm;72848;52.216;5.616;2024-03-08T09:10:04;40.35;37.13;49.39;;
83034;Laerm;72848;52.216;5.616;2024-03-08T09:12:33;48.97;38.79;61.57;;
83034;Laerm;72848;52.216;5.616;2024-03-08T09:15:03;41.61;36.86;57.96;;
83034;Laerm;72848;52.216;5.616;2024-03-08T09:17:31;40.47;36.69;48.51;;
83034;Laerm;72848;52.216;5.616;2024-03-08T09:20:03;43.44;37.73;52.46;;
83034;Laerm;72848;52.216;5.616;2024-03-08T09:22:32;42.75;38.09;55.84;;
83034;Laerm;72848;52.216;5.616;2024-03-08T09:25:00;40.55;36.70;51.87;;
83034;Laerm;72848;52.216;5.616;2024-03-08T09:27:29;40.93;35.33;57.59;;
83034;Laerm;72848;52.216;5.616;2024-03-08T09:29:57;39.67;35.71;51.92;;
83034;Laerm;72848;52.216;5.616;2024-03-08T09:32:26;39.51;35.54;47.97;;
83034;Laerm;72848;52.216;5.616;2024-03-08T09:34:54;38.45;35.01;49.47;;
83034;Laerm;72848;52.216;5.616;2024-03-08T09:37:26;38.50;34.73;49.38;;
83034;Laerm;72848;52.216;5.616;2024-03-08T09:39:55;40.25;35.56;57.24;;
83034;Laerm;72848;52.216;5.616;2024-03-08T09:42:24;44.06;36.74;56.40;;
83034;Laerm;72848;52.216;5.616;2024-03-08T09:44:52;44.47;37.47;64.12;;
83034;Laerm;72848;52.216;5.616;2024-03-08T09:47:22;45.34;36.38;59.26;;
83034;Laerm;72848;52.216;5.616;2024-03-08T09:49:53;45.51;35.37;62.69;;
83034;Laerm;72848;52.216;5.616;2024-03-08T09:52:21;41.57;33.79;57.87;;
83034;Laerm;72848;52.216;5.616;2024-03-08T09:54:53;42.75;34.42;54.80;;
83034;Laerm;72848;52.216;5.616;2024-03-08T09:57:22;42.23;35.17;60.86;;
83034;Laerm;72848;52.216;5.616;2024-03-08T09:59:51;40.19;34.96;51.91;;
83034;Laerm;72848;52.216;5.616;2024-03-08T10:02:20;40.46;34.34;55.57;;
83034;Laerm;72848;52.216;5.616;2024-03-08T10:04:49;45.47;33.40;59.58;;
83034;Laerm;72848;52.216;5.616;2024-03-08T10:07:19;44.04;33.45;56.07;;
83034;Laerm;72848;52.216;5.616;2024-03-08T10:09:48;48.55;35.44;66.65;;
83034;Laerm;72848;52.216;5.616;2024-03-08T10:12:22;45.31;33.85;65.33;;
83034;Laerm;72848;52.216;5.616;2024-03-08T10:14:52;40.77;34.24;58.92;;
83034;Laerm;72848;52.216;5.616;2024-03-08T10:17:23;48.96;33.99;70.85;;
83034;Laerm;72848;52.216;5.616;2024-03-08T10:19:52;46.89;35.39;67.41;;
83034;Laerm;72848;52.216;5.616;2024-03-08T10:22:21;42.01;34.23;60.28;;
83034;Laerm;72848;52.216;5.616;2024-03-08T10:24:49;43.45;34.05;58.56;;
83034;Laerm;72848;52.216;5.616;2024-03-08T10:27:18;45.87;34.59;58.32;;
83034;Laerm;72848;52.216;5.616;2024-03-08T10:29:49;52.88;34.89;70.21;;
83034;Laerm;72848;52.216;5.616;2024-03-08T10:32:18;38.82;34.95;49.32;;
83034;Laerm;72848;52.216;5.616;2024-03-08T10:34:46;38.85;33.89;46.36;;
83034;Laerm;72848;52.216;5.616;2024-03-08T10:37:15;39.84;33.65;58.38;;
83034;Laerm;72848;52.216;5.616;2024-03-08T10:39:45;39.52;34.04;52.87;;
83034;Laerm;72848;52.216;5.616;2024-03-08T10:42:17;39.03;33.23;55.67;;
83034;Laerm;72848;52.216;5.616;2024-03-08T10:44:58;40.68;34.44;56.17;;
83034;Laerm;72848;52.216;5.616;2024-03-08T10:47:30;39.15;33.92;57.83;;
83034;Laerm;72848;52.216;5.616;2024-03-08T10:50:02;40.50;34.21;47.75;;
83034;Laerm;72848;52.216;5.616;2024-03-08T10:52:34;41.85;35.93;52.76;;
83034;Laerm;72848;52.216;5.616;2024-03-08T10:55:03;37.51;34.05;45.95;;
83034;Laerm;72848;52.216;5.616;2024-03-08T10:57:32;40.16;34.29;51.57;;
83034;Laerm;72848;52.216;5.616;2024-03-08T11:00:06;41.86;34.85;51.07;;
83034;Laerm;72848;52.216;5.616;2024-03-08T11:02:35;42.11;35.10;50.81;;
83034;Laerm;72848;52.216;5.616;2024-03-08T11:05:03;41.26;35.26;50.84;;
83034;Laerm;72848;52.216;5.616;2024-03-08T11:07:33;39.43;34.64;53.59;;
83034;Laerm;72848;52.216;5.616;2024-03-08T11:10:02;38.06;33.82;50.31;;
83034;Laerm;72848;52.216;5.616;2024-03-08T11:12:35;36.85;33.50;43.36;;
83034;Laerm;72848;52.216;5.616;2024-03-08T11:15:12;39.75;34.03;48.74;;
83034;Laerm;72848;52.216;5.616;2024-03-08T11:17:44;41.37;34.07;52.41;;
83034;Laerm;72848;52.216;5.616;2024-03-08T11:20:14;41.27;35.06;49.68;;
83034;Laerm;72848;52.216;5.616;2024-03-08T11:22:47;40.56;34.87;54.50;;
83034;Laerm;72848;52.216;5.616;2024-03-08T11:28:12;39.67;34.00;55.88;;
83034;Laerm;72848;52.216;5.616;2024-03-08T11:30:46;43.41;36.52;50.93;;
83034;Laerm;72848;52.216;5.616;2024-03-08T11:33:15;42.97;37.23;51.60;;
83034;Laerm;72848;52.216;5.616;2024-03-08T11:35:44;42.52;36.79;52.89;;
83034;Laerm;72848;52.216;5.616;2024-03-08T11:38:12;41.99;35.65;53.67;;
83034;Laerm;72848;52.216;5.616;2024-03-08T11:40:41;38.86;34.98;46.65;;
83034;Laerm;72848;52.216;5.616;2024-03-08T11:43:09;42.31;38.01;47.68;;
83034;Laerm;72848;52.216;5.616;2024-03-08T11:45:38;42.81;36.89;49.47;;
83034;Laerm;72848;52.216;5.616;2024-03-08T11:48:10;39.24;34.76;44.39;;
83034;Laerm;72848;52.216;5.616;2024-03-08T11:50:39;43.91;35.99;57.48;;
83034;Laerm;72848;52.216;5.616;2024-03-08T11:53:07;41.39;37.21;47.95;;
83034;Laerm;72848;52.216;5.616;2024-03-08T11:55:36;44.53;36.25;63.07;;
83034;Laerm;72848;52.216;5.616;2024-03-08T11:58:04;47.77;35.68;62.84;;
83034;Laerm;72848;52.216;5.616;2024-03-08T12:00:33;45.88;38.58;54.97;;
83034;Laerm;72848;52.216;5.616;2024-03-08T12:03:02;44.14;36.50;52.21;;
83034;Laerm;72848;52.216;5.616;2024-03-08T12:05:34;44.33;37.48;53.11;;
83034;Laerm;72848;52.216;5.616;2024-03-08T12:08:02;44.59;39.35;53.56;;
83034;Laerm;72848;52.216;5.616;2024-03-08T12:10:31;48.73;39.61;75.10;;
83034;Laerm;72848;52.216;5.616;2024-03-08T12:13:00;46.02;39.56;53.97;;
83034;Laerm;72848;52.216;5.616;2024-03-08T12:15:28;42.15;38.97;53.77;;
83034;Laerm;72848;52.216;5.616;2024-03-08T12:17:57;46.27;38.41;56.73;;
83034;Laerm;72848;52.216;5.616;2024-03-08T12:20:27;44.51;40.39;50.60;;
83034;Laerm;72848;52.216;5.616;2024-03-08T12:22:59;44.72;38.86;53.57;;
83034;Laerm;72848;52.216;5.616;2024-03-08T12:25:29;47.65;42.13;54.57;;
83034;Laerm;72848;52.216;5.616;2024-03-08T12:28:06;47.02;41.34;56.44;;
83034;Laerm;72848;52.216;5.616;2024-03-08T12:30:35;46.25;39.67;51.91;;
83034;Laerm;72848;52.216;5.616;2024-03-08T12:33:04;46.83;40.10;57.55;;
83034;Laerm;72848;52.216;5.616;2024-03-08T12:35:32;46.29;41.23;54.35;;
83034;Laerm;72848;52.216;5.616;2024-03-08T12:38:04;50.57;43.74;66.55;;
83034;Laerm;72848;52.216;5.616;2024-03-08T12:40:32;47.12;40.16;59.58;;
83034;Laerm;72848;52.216;5.616;2024-03-08T12:43:01;41.80;37.60;48.18;;
83034;Laerm;72848;52.216;5.616;2024-03-08T12:45:30;45.91;36.63;53.74;;
83034;Laerm;72848;52.216;5.616;2024-03-08T12:47:58;41.36;36.78;50.84;;
83034;Laerm;72848;52.216;5.616;2024-03-08T12:50:27;46.89;38.87;59.23;;
83034;Laerm;72848;52.216;5.616;2024-03-08T12:52:56;42.23;36.12;56.87;;
83034;Laerm;72848;52.216;5.616;2024-03-08T12:55:27;44.12;38.61;57.88;;
83034;Laerm;72848;52.216;5.616;2024-03-08T12:57:56;42.69;36.26;48.35;;
83034;Laerm;72848;52.216;5.616;2024-03-08T13:00:24;45.88;39.45;56.51;;
83034;Laerm;72848;52.216;5.616;2024-03-08T13:02:53;44.68;36.86;67.63;;
83034;Laerm;72848;52.216;5.616;2024-03-08T13:05:22;39.59;36.74;46.65;;
83034;Laerm;72848;52.216;5.616;2024-03-08T13:07:50;42.21;36.17;49.21;;
83034;Laerm;72848;52.216;5.616;2024-03-08T13:10:18;43.48;36.13;63.65;;
83034;Laerm;72848;52.216;5.616;2024-03-08T13:12:49;44.83;37.81;51.83;;
83034;Laerm;72848;52.216;5.616;2024-03-08T13:15:18;46.76;39.42;55.55;;
83034;Laerm;72848;52.216;5.616;2024-03-08T13:17:47;42.97;36.74;54.42;;
83034;Laerm;72848;52.216;5.616;2024-03-08T13:20:16;42.69;38.03;48.35;;
83034;Laerm;72848;52.216;5.616;2024-03-08T13:22:45;38.78;35.36;52.28;;
83034;Laerm;72848;52.216;5.616;2024-03-08T13:25:15;39.29;36.14;46.08;;
83034;Laerm;72848;52.216;5.616;2024-03-08T13:27:43;43.65;38.29;52.03;;
83034;Laerm;72848;52.216;5.616;2024-03-08T13:30:16;40.30;36.93;46.02;;
83034;Laerm;72848;52.216;5.616;2024-03-08T13:32:44;44.17;36.10;56.17;;
83034;Laerm;72848;52.216;5.616;2024-03-08T13:35:13;43.93;38.61;53.40;;
83034;Laerm;72848;52.216;5.616;2024-03-08T13:37:42;49.54;39.50;60.07;;
83034;Laerm;72848;52.216;5.616;2024-03-08T13:40:11;46.09;40.90;54.53;;
83034;Laerm;72848;52.216;5.616;2024-03-08T13:42:39;45.01;38.60;51.73;;
83034;Laerm;72848;52.216;5.616;2024-03-08T13:45:08;41.09;36.96;51.76;;
83034;Laerm;72848;52.216;5.616;2024-03-08T13:47:39;46.26;40.43;52.84;;
83034;Laerm;72848;52.216;5.616;2024-03-08T13:50:08;45.31;41.17;51.34;;
83034;Laerm;72848;52.216;5.616;2024-03-08T13:52:37;43.04;38.65;52.97;;
83034;Laerm;72848;52.216;5.616;2024-03-08T13:55:06;47.81;41.72;53.42;;
83034;Laerm;72848;52.216;5.616;2024-03-08T13:57:35;43.76;38.01;51.39;;